createdAt,value
2019-04-06T00:05:55.518Z,153.10
2019-04-06T00:12:00.136Z,115.13
2019-04-06T00:18:04.731Z,128.87
2019-04-06T00:24:09.329Z,121.03
2019-04-06T00:30:15.110Z,120.60
2019-04-06T00:36:19.849Z,94.33
2019-04-06T00:42:24.433Z,121.83
2019-04-06T00:48:29.043Z,115.70
2019-04-06T00:54:33.654Z,96.60
2019-04-06T01:00:38.421Z,119.50
2019-04-06T01:06:43.083Z,97.07
2019-04-06T01:12:47.832Z,118.47
2019-04-06T01:18:52.516Z,118.90
2019-04-06T01:24:57.129Z,103.53
2019-04-06T01:31:01.733Z,108.07
2019-04-06T01:37:06.631Z,105.63
2019-04-06T01:43:11.283Z,101.00
2019-04-06T01:49:15.869Z,94.00
2019-04-06T01:55:20.467Z,106.87
2019-04-06T02:01:42.809Z,118.93
2019-04-06T02:07:48.175Z,126.60
2019-04-06T02:13:52.811Z,115.20
2019-04-06T02:19:57.421Z,286.60
2019-04-06T02:26:02.031Z,367.50
2019-04-06T02:32:06.378Z,303.77
2019-04-06T02:38:19.492Z,155.60
2019-04-06T02:44:24.151Z,137.80
2019-04-06T02:50:28.815Z,84.67
2019-04-06T02:56:45.040Z,80.17
2019-04-06T03:02:39.848Z,86.57
2019-04-06T03:08:44.434Z,77.10
2019-04-06T03:14:49.028Z,66.67
2019-04-06T03:20:53.767Z,178.47
2019-04-06T03:27:02.653Z,188.00
2019-04-06T03:33:06.281Z,93.30
2019-04-06T03:39:10.950Z,188.90
2019-04-06T03:45:16.016Z,116.77
2019-04-06T03:51:20.716Z,214.13
2019-04-06T03:57:25.354Z,117.17
2019-04-06T04:03:29.905Z,74.90
2019-04-06T04:09:34.453Z,77.93
2019-04-06T04:15:39.296Z,69.77
2019-04-06T04:21:43.995Z,70.90
2019-04-06T04:27:48.581Z,107.20
2019-04-06T04:33:53.249Z,100.87
2019-04-06T04:39:57.898Z,68.40
2019-04-06T04:46:02.441Z,47.03
2019-04-06T04:52:07.060Z,45.40
2019-04-06T04:58:11.631Z,58.30
2019-04-06T05:04:16.270Z,51.00
2019-04-06T05:10:20.832Z,44.77
2019-04-06T05:16:25.614Z,44.80
2019-04-06T05:22:30.165Z,48.17
2019-04-06T05:28:34.903Z,51.47
2019-04-06T05:34:39.441Z,61.00
2019-04-06T05:40:43.994Z,59.73
2019-04-06T05:46:48.626Z,50.57
2019-04-06T05:52:53.244Z,53.93
2019-04-06T05:58:57.797Z,60.03
2019-04-06T06:05:02.381Z,59.13
2019-04-06T06:11:07.013Z,56.90
2019-04-06T06:17:11.587Z,65.43
2019-04-06T06:23:16.113Z,54.27
2019-04-06T06:29:20.733Z,52.67
2019-04-06T06:35:25.371Z,51.80
2019-04-06T06:41:29.995Z,60.97
2019-04-06T06:47:34.531Z,56.00
2019-04-06T06:53:39.271Z,50.53
2019-04-06T06:59:43.833Z,61.57
2019-04-06T07:05:48.668Z,56.37
2019-04-06T07:11:53.355Z,66.00
2019-04-06T07:17:57.907Z,63.60
2019-04-06T07:24:02.453Z,62.80
2019-04-06T07:30:08.540Z,59.23
2019-04-06T07:36:13.157Z,63.53
2019-04-06T07:42:17.710Z,64.53
2019-04-06T07:48:22.342Z,60.43
2019-04-06T07:54:27.021Z,66.57
2019-04-06T08:00:31.652Z,62.87
2019-04-06T08:06:36.197Z,62.73
2019-04-06T08:12:40.766Z,58.73
2019-04-06T08:18:45.315Z,65.23
2019-04-06T08:24:49.861Z,62.90
2019-04-06T08:30:54.569Z,62.60
2019-04-06T08:36:59.181Z,54.70
2019-04-06T08:43:03.735Z,52.57
2019-04-06T08:49:08.380Z,61.00
2019-04-06T08:55:13.335Z,62.53
2019-04-06T09:01:17.982Z,55.83
2019-04-06T09:07:22.547Z,62.00
2019-04-06T09:13:28.613Z,56.80
2019-04-06T09:19:33.187Z,67.83
2019-04-06T09:25:37.743Z,63.20
2019-04-06T09:31:42.310Z,62.03
2019-04-06T09:37:46.898Z,61.50
2019-04-06T09:43:51.473Z,58.93
2019-04-06T09:50:09.472Z,65.53
2019-04-06T09:56:13.812Z,61.40
2019-04-06T10:02:38.216Z,56.63
2019-04-06T10:08:56.695Z,53.23
2019-04-06T10:15:17.755Z,50.37
2019-04-06T10:21:37.314Z,48.23
2019-04-06T10:27:49.580Z,51.50
2019-04-06T10:33:58.599Z,57.33
2019-04-06T10:40:05.232Z,47.33
2019-04-06T10:46:11.605Z,44.40
2019-04-06T10:52:24.082Z,41.53
2019-04-06T10:58:30.301Z,43.53
2019-04-06T11:04:45.027Z,42.07
2019-04-06T11:11:07.094Z,41.00
2019-04-06T11:17:14.246Z,39.43
2019-04-06T11:23:23.225Z,37.93
2019-04-06T11:29:35.629Z,37.10
2019-04-06T11:35:45.915Z,31.47
2019-04-06T11:42:06.923Z,26.07
2019-04-06T11:48:23.621Z,25.30
2019-04-06T11:54:45.839Z,26.93
2019-04-06T12:00:52.946Z,21.73
2019-04-06T12:07:14.271Z,22.73
2019-04-06T12:13:23.013Z,25.60
2019-04-06T12:19:45.422Z,21.40
2019-04-06T12:26:00.779Z,20.77
2019-04-06T12:32:12.755Z,15.50
2019-04-06T12:38:24.515Z,18.43
2019-04-06T12:44:30.740Z,15.83
2019-04-06T12:50:53.174Z,11.63
2019-04-06T12:57:09.440Z,11.47
2019-04-06T13:03:14.016Z,13.93
2019-04-06T13:09:36.700Z,16.03
2019-04-06T13:15:51.887Z,28.20
2019-04-06T13:21:58.186Z,25.20
2019-04-06T13:28:04.402Z,23.57
2019-04-06T13:34:26.411Z,22.07
2019-04-06T13:40:51.341Z,23.13
2019-04-06T13:46:56.921Z,18.20
2019-04-06T13:53:01.812Z,20.57
2019-04-06T13:59:11.645Z,22.20
2019-04-06T14:05:23.817Z,31.47
2019-04-06T14:11:36.035Z,37.83
2019-04-06T14:17:43.478Z,35.20
2019-04-06T14:24:05.268Z,42.73
2019-04-06T14:30:25.958Z,30.40
2019-04-06T14:36:50.065Z,32.73
2019-04-06T14:43:05.021Z,32.30
2019-04-06T14:49:32.004Z,27.30
2019-04-06T14:55:37.249Z,43.53
2019-04-06T15:01:57.724Z,41.23
2019-04-06T15:08:01.675Z,34.33
2019-04-06T15:14:19.974Z,29.80
2019-04-06T15:20:42.008Z,25.73
2019-04-06T15:26:48.493Z,35.30
2019-04-06T15:33:03.678Z,29.10
2019-04-06T15:39:09.048Z,22.77
2019-04-06T15:45:19.377Z,27.83
2019-04-06T15:51:23.734Z,26.43
2019-04-06T15:57:29.913Z,22.30
2019-04-06T16:03:52.308Z,23.30
2019-04-06T16:10:04.650Z,26.07
2019-04-06T16:16:11.636Z,28.13
2019-04-06T16:22:34.546Z,21.90
2019-04-06T16:28:41.446Z,23.63
2019-04-06T16:34:50.303Z,19.70
2019-04-06T16:41:11.953Z,13.60
2019-04-06T16:47:20.581Z,16.40
2019-04-06T16:53:32.859Z,14.77
2019-04-06T16:59:54.303Z,18.70
2019-04-06T17:06:01.498Z,14.83
2019-04-06T17:12:24.742Z,12.03
2019-04-06T17:18:29.150Z,13.00
2019-04-06T17:24:38.757Z,14.60
2019-04-06T17:30:56.709Z,12.83
2019-04-06T17:37:05.754Z,19.70
2019-04-06T17:43:16.104Z,14.43
2019-04-06T17:49:24.190Z,18.47
2019-04-06T17:55:48.756Z,16.00
2019-04-06T18:02:04.278Z,16.47
2019-04-06T18:08:26.476Z,14.47
2019-04-06T18:14:31.439Z,15.83
2019-04-06T18:20:36.105Z,20.23
2019-04-06T18:26:40.662Z,17.33
2019-04-06T18:32:58.353Z,16.50
2019-04-06T18:38:57.704Z,15.27
2019-04-06T18:45:02.335Z,22.00
2019-04-06T18:51:06.924Z,28.37
2019-04-06T18:57:11.638Z,21.23
2019-04-06T19:03:16.855Z,24.90
2019-04-06T19:09:24.014Z,24.00
2019-04-06T19:15:28.472Z,23.47
2019-04-06T19:21:33.226Z,23.23
2019-04-06T19:27:37.931Z,25.07
2019-04-06T19:33:43.154Z,28.10
2019-04-06T19:39:47.978Z,27.77
2019-04-06T19:45:52.940Z,27.63
2019-04-06T19:51:57.845Z,27.50
2019-04-06T19:58:02.514Z,29.33
2019-04-06T20:04:07.089Z,28.77
2019-04-06T20:10:12.726Z,32.90
2019-04-06T20:16:17.513Z,28.27
2019-04-06T20:22:22.933Z,31.77
2019-04-06T20:28:27.764Z,28.37
2019-04-06T20:34:32.345Z,29.80
2019-04-06T20:40:36.908Z,28.63
2019-04-06T20:46:41.477Z,32.33
2019-04-06T20:52:46.115Z,26.33
2019-04-06T20:58:51.208Z,23.77
2019-04-06T21:04:56.184Z,26.33
2019-04-06T21:11:01.189Z,22.00
2019-04-06T21:17:06.891Z,20.73
2019-04-06T21:23:11.736Z,18.50
2019-04-06T21:29:16.830Z,28.73
2019-04-06T21:35:21.559Z,22.17
2019-04-06T21:41:27.760Z,19.07
2019-04-06T21:47:32.500Z,19.10
2019-04-06T21:53:37.040Z,16.03
2019-04-06T21:59:41.820Z,15.10
2019-04-06T22:05:46.625Z,18.93
2019-04-06T22:11:51.553Z,18.60
2019-04-06T22:17:56.677Z,16.50
2019-04-06T22:24:01.321Z,18.10
2019-04-06T22:30:09.791Z,15.90
2019-04-06T22:36:14.350Z,18.60
2019-04-06T22:42:19.328Z,14.80
2019-04-06T22:48:24.235Z,17.73
2019-04-06T22:54:28.867Z,15.50
2019-04-06T23:00:37.612Z,19.03
2019-04-06T23:06:43.805Z,16.13
2019-04-06T23:12:48.693Z,20.00
2019-04-06T23:18:53.747Z,24.40
2019-04-06T23:24:58.998Z,18.00
2019-04-06T23:31:04.008Z,19.13
2019-04-06T23:37:08.699Z,20.57
2019-04-06T23:43:13.327Z,19.90
2019-04-06T23:49:17.925Z,24.87
2019-04-06T23:55:22.490Z,23.47
